createdAt,value
2019-01-25T00:00:56.365Z,93.83
2019-01-25T00:03:25.679Z,102.57
2019-01-25T00:05:54.997Z,94.20
2019-01-25T00:08:24.291Z,98.50
2019-01-25T00:10:53.596Z,95.80
2019-01-25T00:13:23.836Z,98.13
2019-01-25T00:15:53.158Z,97.07
2019-01-25T00:18:22.462Z,94.60
2019-01-25T00:20:51.766Z,99.23
2019-01-25T00:23:21.053Z,95.40
2019-01-25T00:25:50.370Z,96.87
2019-01-25T00:28:19.683Z,96.63
2019-01-25T00:30:49.889Z,97.97
2019-01-25T00:33:19.199Z,92.13
2019-01-25T00:35:48.490Z,101.00
2019-01-25T00:38:18.699Z,89.00
2019-01-25T00:40:48.925Z,97.10
2019-01-25T00:43:18.212Z,102.00
2019-01-25T00:45:47.510Z,103.90
2019-01-25T00:48:16.820Z,101.87
2019-01-25T00:50:46.123Z,104.33
2019-01-25T00:53:15.433Z,105.53
2019-01-25T00:55:44.713Z,101.83
2019-01-25T00:58:14.022Z,94.90
2019-01-25T01:00:43.331Z,108.57
2019-01-25T01:03:12.663Z,104.63
2019-01-25T01:05:43.006Z,102.67
2019-01-25T01:08:12.384Z,100.33
2019-01-25T01:10:42.683Z,101.60
2019-01-25T01:13:12.006Z,93.93
2019-01-25T01:15:41.314Z,98.07
2019-01-25T01:18:10.666Z,100.00
2019-01-25T01:20:40.029Z,108.77
2019-01-25T01:23:09.421Z,107.00
2019-01-25T01:25:38.781Z,107.70
2019-01-25T01:28:08.126Z,99.60
2019-01-25T01:30:37.532Z,103.20
2019-01-25T01:33:07.889Z,101.73
2019-01-25T01:35:37.202Z,100.73
2019-01-25T01:38:07.471Z,103.80
2019-01-25T01:40:36.769Z,102.50
2019-01-25T01:43:07.062Z,109.93
2019-01-25T01:45:37.335Z,101.30
2019-01-25T01:48:06.827Z,101.67
2019-01-25T01:50:36.126Z,106.77
2019-01-25T01:53:05.489Z,94.90
2019-01-25T01:55:34.802Z,101.13
2019-01-25T01:58:04.112Z,98.30
2019-01-25T02:00:33.516Z,96.87
2019-01-25T02:03:02.819Z,104.90
2019-01-25T02:05:32.123Z,97.53
2019-01-25T02:08:01.436Z,100.37
2019-01-25T02:10:30.832Z,96.60
2019-01-25T02:13:00.135Z,103.07
2019-01-25T02:15:30.438Z,95.30
2019-01-25T02:17:59.752Z,103.30
2019-01-25T02:20:29.494Z,101.30
2019-01-25T02:22:58.794Z,104.13
2019-01-25T02:25:28.113Z,100.07
2019-01-25T02:27:57.397Z,101.10
2019-01-25T02:30:27.155Z,101.73
2019-01-25T02:32:56.442Z,101.03
2019-01-25T02:35:25.752Z,105.30
2019-01-25T02:37:55.111Z,97.60
2019-01-25T02:40:24.773Z,106.90
2019-01-25T02:42:54.142Z,104.57
2019-01-25T02:45:23.617Z,103.93
2019-01-25T02:47:53.042Z,99.43
2019-01-25T02:50:22.395Z,99.37
2019-01-25T02:52:51.724Z,98.63
2019-01-25T02:55:21.144Z,103.67
2019-01-25T02:57:50.442Z,104.53
2019-01-25T03:00:21.794Z,105.20
2019-01-25T03:02:51.249Z,104.80
2019-01-25T03:05:21.852Z,107.37
2019-01-25T03:07:51.410Z,108.73
2019-01-25T03:10:28.465Z,96.20
2019-01-25T03:12:53.622Z,103.50
2019-01-25T03:15:26.478Z,107.63
2019-01-25T03:17:56.865Z,111.43
2019-01-25T03:20:26.349Z,95.57
2019-01-25T03:22:55.805Z,107.77
2019-01-25T03:25:27.191Z,107.67
2019-01-25T03:27:56.518Z,98.13
2019-01-25T03:30:27.104Z,104.10
2019-01-25T03:32:56.480Z,111.13
2019-01-25T03:35:26.614Z,108.97
2019-01-25T03:37:56.928Z,107.97
2019-01-25T03:40:27.557Z,110.57
2019-01-25T03:42:57.014Z,105.17
2019-01-25T03:45:26.566Z,113.23
2019-01-25T03:47:55.930Z,99.20
2019-01-25T03:50:27.552Z,103.40
2019-01-25T03:52:56.968Z,104.33
2019-01-25T03:55:26.816Z,111.33
2019-01-25T03:57:56.100Z,104.17
2019-01-25T04:00:27.364Z,106.13
2019-01-25T04:02:56.738Z,107.57
2019-01-25T04:05:26.116Z,107.77
2019-01-25T04:07:56.412Z,107.03
2019-01-25T04:10:27.370Z,105.13
2019-01-25T04:12:57.942Z,103.30
2019-01-25T04:15:32.887Z,100.80
2019-01-25T04:18:02.273Z,104.87
2019-01-25T04:20:31.557Z,105.40
2019-01-25T04:23:00.870Z,99.43
2019-01-25T04:25:30.174Z,106.57
2019-01-25T04:27:59.532Z,106.60
2019-01-25T04:30:30.368Z,112.63
2019-01-25T04:33:00.676Z,104.73
2019-01-25T04:35:29.971Z,111.20
2019-01-25T04:37:59.269Z,101.27
2019-01-25T04:40:28.569Z,104.70
2019-01-25T04:42:57.888Z,110.90
2019-01-25T04:45:27.204Z,109.03
2019-01-25T04:47:56.494Z,107.60
2019-01-25T04:50:25.920Z,114.20
2019-01-25T04:52:56.310Z,109.73
2019-01-25T04:55:28.779Z,105.33
2019-01-25T04:58:06.825Z,107.60
2019-01-25T05:00:36.139Z,114.17
2019-01-25T05:03:05.715Z,107.80
2019-01-25T05:05:36.202Z,104.67
2019-01-25T05:08:11.400Z,107.60
2019-01-25T05:10:40.729Z,102.37
2019-01-25T05:13:10.883Z,107.87
2019-01-25T05:15:40.126Z,110.53
2019-01-25T05:18:09.475Z,102.17
2019-01-25T05:20:38.748Z,109.63
2019-01-25T05:23:08.378Z,109.93
2019-01-25T05:25:37.786Z,106.83
2019-01-25T05:28:12.447Z,100.73
2019-01-25T05:30:53.655Z,109.23
2019-01-25T05:33:22.913Z,107.03
2019-01-25T05:35:52.224Z,113.80
2019-01-25T05:38:21.503Z,112.07
2019-01-25T05:40:50.739Z,104.00
2019-01-25T05:43:20.246Z,115.93
2019-01-25T05:45:49.498Z,101.93
2019-01-25T05:48:18.800Z,103.37
2019-01-25T05:50:48.042Z,102.67
2019-01-25T05:53:21.268Z,109.37
2019-01-25T05:55:50.517Z,115.40
2019-01-25T05:58:19.760Z,109.03
2019-01-25T06:00:48.994Z,111.07
2019-01-25T06:03:18.260Z,102.43
2019-01-25T06:05:47.507Z,98.23
2019-01-25T06:08:32.922Z,105.20
2019-01-25T06:11:06.613Z,104.20
2019-01-25T06:13:35.920Z,99.57
2019-01-25T06:16:06.684Z,104.20
2019-01-25T06:18:35.994Z,101.83
2019-01-25T06:21:05.508Z,102.53
2019-01-25T06:23:34.740Z,100.77
2019-01-25T06:26:04.652Z,111.50
2019-01-25T06:28:33.906Z,104.13
2019-01-25T06:31:03.167Z,105.47
2019-01-25T06:33:32.477Z,105.90
2019-01-25T06:36:01.787Z,99.53
2019-01-25T06:38:32.036Z,102.57
2019-01-25T06:41:01.307Z,106.40
2019-01-25T06:43:30.538Z,109.07
2019-01-25T06:45:59.789Z,107.03
2019-01-25T06:48:30.010Z,111.33
2019-01-25T06:50:59.255Z,104.00
2019-01-25T06:53:28.525Z,104.73
2019-01-25T06:55:57.773Z,100.43
2019-01-25T06:58:31.710Z,108.57
2019-01-25T07:01:11.427Z,110.27
2019-01-25T07:03:40.704Z,107.17
2019-01-25T07:06:10.878Z,115.20
2019-01-25T07:08:40.139Z,109.93
2019-01-25T07:11:09.388Z,108.80
2019-01-25T07:13:38.662Z,108.83
2019-01-25T07:16:07.924Z,107.30
2019-01-25T07:18:37.429Z,106.33
2019-01-25T07:21:06.752Z,107.60
2019-01-25T07:23:36.029Z,112.33
2019-01-25T07:26:05.288Z,111.50
2019-01-25T07:28:35.533Z,113.97
2019-01-25T07:31:04.958Z,110.70
2019-01-25T07:33:35.123Z,112.20
2019-01-25T07:36:04.605Z,109.47
2019-01-25T07:38:33.869Z,112.10
2019-01-25T07:41:03.121Z,113.90
2019-01-25T07:43:32.387Z,111.23
2019-01-25T07:46:01.650Z,119.60
2019-01-25T07:48:30.926Z,112.80
2019-01-25T07:51:01.169Z,107.17
2019-01-25T07:53:30.434Z,117.23
2019-01-25T07:55:59.652Z,125.53
2019-01-25T07:58:28.930Z,122.10
2019-01-25T08:00:58.165Z,111.50
2019-01-25T08:03:27.433Z,124.93
2019-01-25T08:05:56.654Z,114.53
2019-01-25T08:08:26.907Z,127.13
2019-01-25T08:10:56.165Z,128.73
2019-01-25T08:13:26.412Z,123.30
2019-01-25T08:15:55.700Z,130.23
2019-01-25T08:18:24.982Z,122.17
2019-01-25T08:20:54.197Z,141.47
2019-01-25T08:23:24.517Z,132.00
2019-01-25T08:25:53.844Z,137.97
2019-01-25T08:28:24.083Z,127.60
2019-01-25T08:30:53.322Z,126.73
2019-01-25T08:33:22.642Z,127.17
2019-01-25T08:35:51.919Z,130.57
2019-01-25T08:38:21.257Z,121.73
2019-01-25T08:40:50.626Z,139.60
2019-01-25T08:43:19.872Z,133.13
2019-01-25T08:45:51.048Z,120.83
2019-01-25T08:48:20.240Z,126.77
2019-01-25T08:50:49.505Z,125.37
2019-01-25T08:53:20.753Z,132.20
2019-01-25T08:55:51.174Z,140.40
2019-01-25T08:58:20.397Z,123.97
2019-01-25T09:00:49.657Z,135.37
2019-01-25T09:03:18.916Z,134.33
2019-01-25T09:05:48.175Z,138.30
2019-01-25T09:08:17.453Z,131.37
2019-01-25T09:10:46.789Z,136.23
2019-01-25T09:13:16.068Z,133.40
2019-01-25T09:15:45.344Z,129.67
2019-01-25T09:18:14.660Z,120.20
2019-01-25T09:20:43.922Z,125.27
2019-01-25T09:23:13.198Z,124.13
2019-01-25T09:25:42.444Z,132.20
2019-01-25T09:28:11.715Z,129.80
2019-01-25T09:30:41.027Z,117.97
2019-01-25T09:33:11.184Z,130.80
2019-01-25T09:35:43.031Z,124.33
2019-01-25T09:38:12.383Z,122.17
2019-01-25T09:40:41.680Z,135.60
2019-01-25T09:43:10.935Z,124.10
2019-01-25T09:45:40.190Z,135.63
2019-01-25T09:48:09.433Z,133.87
2019-01-25T09:50:38.686Z,127.83
2019-01-25T09:53:08.896Z,144.30
2019-01-25T09:55:38.154Z,135.00
2019-01-25T09:58:13.621Z,137.63
2019-01-25T10:00:52.451Z,129.27
2019-01-25T10:03:21.703Z,130.73
2019-01-25T10:05:50.961Z,139.30
2019-01-25T10:08:20.194Z,130.73
2019-01-25T10:10:49.452Z,141.07
2019-01-25T10:13:18.701Z,143.37
2019-01-25T10:15:47.962Z,150.87
2019-01-25T10:18:17.198Z,151.67
2019-01-25T10:20:50.036Z,143.30
2019-01-25T10:23:21.259Z,161.20
2019-01-25T10:25:51.520Z,148.70
2019-01-25T10:28:23.420Z,148.63
2019-01-25T10:30:53.679Z,154.97
2019-01-25T10:33:22.913Z,161.00
2019-01-25T10:35:52.173Z,150.47
2019-01-25T10:38:22.416Z,166.67
2019-01-25T10:40:51.668Z,148.80
2019-01-25T10:43:21.909Z,153.73
2019-01-25T10:45:51.143Z,160.93
2019-01-25T10:48:22.046Z,151.73
2019-01-25T10:50:51.369Z,137.67
2019-01-25T10:53:20.639Z,140.97
2019-01-25T10:55:49.878Z,146.93
2019-01-25T10:58:20.183Z,148.67
2019-01-25T11:00:49.433Z,135.10
2019-01-25T11:03:18.713Z,134.17
2019-01-25T11:05:47.949Z,132.57
2019-01-25T11:08:17.213Z,138.70
2019-01-25T11:10:47.391Z,126.03
2019-01-25T11:13:16.663Z,132.83
2019-01-25T11:15:45.932Z,128.37
2019-01-25T11:18:15.197Z,127.80
2019-01-25T11:20:45.408Z,128.37
2019-01-25T11:23:16.685Z,132.07
2019-01-25T11:25:46.035Z,117.20
2019-01-25T11:28:15.296Z,114.63
2019-01-25T11:30:44.550Z,110.63
2019-01-25T11:33:13.794Z,123.37
2019-01-25T11:35:43.059Z,115.97
2019-01-25T11:38:12.317Z,119.30
2019-01-25T11:40:43.207Z,110.40
2019-01-25T11:43:12.443Z,104.87
2019-01-25T11:45:41.855Z,89.20
2019-01-25T11:48:12.839Z,66.80
2019-01-25T11:50:43.072Z,57.90
2019-01-25T11:53:14.219Z,53.53
2019-01-25T11:55:44.421Z,44.90
2019-01-25T11:58:13.669Z,41.40
2019-01-25T12:00:44.110Z,41.30
2019-01-25T12:03:13.786Z,37.30
2019-01-25T12:05:44.088Z,37.93
2019-01-25T12:08:13.769Z,39.37
2019-01-25T12:10:44.018Z,37.13
2019-01-25T12:13:16.174Z,37.53
2019-01-25T12:15:44.214Z,36.83
2019-01-25T12:18:13.548Z,35.37
2019-01-25T12:20:46.416Z,38.03
2019-01-25T12:23:15.680Z,34.27
2019-01-25T12:25:44.934Z,38.00
2019-01-25T12:28:14.167Z,36.60
2019-01-25T12:30:43.412Z,36.47
2019-01-25T12:33:13.549Z,37.07
2019-01-25T12:35:42.850Z,41.03
2019-01-25T12:38:12.110Z,38.17
2019-01-25T12:40:42.438Z,41.20
2019-01-25T12:43:12.899Z,36.70
2019-01-25T12:45:42.141Z,37.93
2019-01-25T12:48:11.394Z,39.60
2019-01-25T12:50:52.995Z,41.63
2019-01-25T12:53:23.440Z,42.10
2019-01-25T12:55:52.668Z,41.90
2019-01-25T12:58:24.989Z,43.97
2019-01-25T13:00:52.869Z,40.73
2019-01-25T13:03:22.126Z,38.50
2019-01-25T13:05:51.385Z,37.63
2019-01-25T13:08:20.622Z,36.63
2019-01-25T13:10:49.887Z,38.10
2019-01-25T13:13:19.154Z,37.13
2019-01-25T13:15:48.419Z,33.47
2019-01-25T13:18:17.666Z,38.20
2019-01-25T13:20:46.922Z,36.47
2019-01-25T13:23:17.091Z,35.90
2019-01-25T13:25:47.348Z,34.17
2019-01-25T13:28:16.580Z,35.10
2019-01-25T13:30:45.919Z,37.87
2019-01-25T13:33:15.152Z,38.23
2019-01-25T13:35:44.464Z,38.17
2019-01-25T13:38:13.796Z,37.53
2019-01-25T13:40:43.119Z,35.87
2019-01-25T13:43:12.358Z,35.67
2019-01-25T13:45:42.507Z,34.80
2019-01-25T13:48:11.763Z,33.77
2019-01-25T13:50:41.007Z,33.33
2019-01-25T13:53:10.246Z,33.30
2019-01-25T13:55:39.482Z,33.13
2019-01-25T13:58:08.748Z,31.57
2019-01-25T14:00:37.991Z,34.60
2019-01-25T14:03:09.153Z,35.90
2019-01-25T14:05:38.392Z,32.47
2019-01-25T14:08:07.647Z,34.13
2019-01-25T14:10:37.058Z,36.53
2019-01-25T14:13:06.586Z,31.40
2019-01-25T14:15:35.831Z,31.07
2019-01-25T14:18:05.543Z,31.47
2019-01-25T14:20:35.706Z,29.90
2019-01-25T14:23:05.835Z,26.87
2019-01-25T14:25:35.078Z,28.57
2019-01-25T14:28:04.319Z,23.67
2019-01-25T14:30:36.081Z,27.50
2019-01-25T14:33:05.772Z,25.03
2019-01-25T14:35:35.038Z,27.03
2019-01-25T14:38:05.222Z,27.43
2019-01-25T14:40:34.641Z,27.10
2019-01-25T14:43:04.056Z,24.17
2019-01-25T14:45:33.309Z,25.17
2019-01-25T14:48:02.547Z,25.03
2019-01-25T14:50:32.663Z,25.97
2019-01-25T14:53:01.902Z,23.20
2019-01-25T14:55:31.148Z,24.40
2019-01-25T14:58:00.387Z,22.30
2019-01-25T15:00:29.711Z,24.47
2019-01-25T15:02:58.974Z,24.93
2019-01-25T15:05:28.273Z,26.57
2019-01-25T15:07:57.549Z,23.13
2019-01-25T15:10:27.839Z,25.10
2019-01-25T15:12:57.462Z,24.07
2019-01-25T15:15:26.779Z,21.00
2019-01-25T15:17:57.888Z,24.57
2019-01-25T15:20:31.803Z,22.73
2019-01-25T15:23:02.079Z,24.17
2019-01-25T15:25:31.310Z,22.50
2019-01-25T15:28:00.558Z,21.00
2019-01-25T15:30:31.713Z,21.03
2019-01-25T15:33:00.963Z,22.63
2019-01-25T15:35:30.190Z,23.67
2019-01-25T15:37:59.430Z,21.87
2019-01-25T15:40:28.674Z,20.97
2019-01-25T15:42:58.928Z,25.57
2019-01-25T15:45:28.157Z,22.73
2019-01-25T15:47:57.420Z,25.67
2019-01-25T15:50:28.523Z,22.97
2019-01-25T15:52:59.782Z,22.90
2019-01-25T15:55:29.218Z,25.17
2019-01-25T15:57:58.474Z,24.93
2019-01-25T16:00:28.867Z,23.27
2019-01-25T16:02:58.110Z,23.90
2019-01-25T16:05:27.558Z,25.60
2019-01-25T16:07:56.816Z,26.37
2019-01-25T16:10:26.136Z,24.80
2019-01-25T16:12:55.380Z,26.30
2019-01-25T16:15:28.128Z,26.63
2019-01-25T16:17:57.553Z,26.90
2019-01-25T16:20:27.781Z,31.03
2019-01-25T16:22:57.097Z,24.90
2019-01-25T16:25:28.422Z,26.53
2019-01-25T16:27:57.663Z,26.13
2019-01-25T16:30:29.069Z,27.13
2019-01-25T16:32:58.392Z,28.57
2019-01-25T16:35:27.646Z,28.77
2019-01-25T16:37:56.958Z,28.90
2019-01-25T16:40:30.462Z,34.20
2019-01-25T16:42:59.717Z,27.70
2019-01-25T16:45:38.219Z,30.57
2019-01-25T16:48:07.460Z,29.47
2019-01-25T16:50:36.783Z,32.93
2019-01-25T16:53:07.881Z,34.77
2019-01-25T16:55:37.114Z,33.07
2019-01-25T16:58:07.478Z,29.87
2019-01-25T17:00:41.905Z,35.27
2019-01-25T17:03:11.262Z,30.20
2019-01-25T17:05:41.507Z,40.30
2019-01-25T17:08:10.843Z,34.43
2019-01-25T17:10:41.278Z,38.63
2019-01-25T17:13:11.664Z,34.63
2019-01-25T17:15:40.994Z,36.10
2019-01-25T17:18:10.451Z,35.17
2019-01-25T17:20:39.696Z,38.70
2019-01-25T17:23:10.016Z,38.57
2019-01-25T17:25:39.288Z,36.30
2019-01-25T17:28:08.718Z,39.30
2019-01-25T17:30:38.960Z,39.90
2019-01-25T17:33:15.102Z,42.07
2019-01-25T17:35:45.363Z,38.33
2019-01-25T17:38:14.643Z,42.30
2019-01-25T17:40:46.884Z,40.40
2019-01-25T17:43:15.828Z,37.27
2019-01-25T17:45:45.170Z,41.23
2019-01-25T17:48:14.479Z,40.93
2019-01-25T17:50:44.650Z,45.77
2019-01-25T17:53:13.898Z,43.23
2019-01-25T17:55:43.147Z,42.13
2019-01-25T17:58:13.343Z,36.77
2019-01-25T18:00:44.255Z,40.73
2019-01-25T18:03:13.500Z,41.23
2019-01-25T18:05:43.714Z,39.40
2019-01-25T18:08:13.025Z,42.73
2019-01-25T18:10:42.295Z,34.97
2019-01-25T18:13:11.548Z,39.33
2019-01-25T18:15:40.791Z,36.70
2019-01-25T18:18:12.121Z,38.87
2019-01-25T18:20:41.485Z,39.37
2019-01-25T18:23:10.731Z,40.80
2019-01-25T18:25:45.675Z,40.50
2019-01-25T18:28:28.436Z,39.20
2019-01-25T18:31:02.203Z,37.80
2019-01-25T18:33:31.457Z,35.73
2019-01-25T18:36:00.731Z,39.67
2019-01-25T18:38:29.996Z,39.27
2019-01-25T18:40:59.259Z,41.70
2019-01-25T18:43:28.506Z,38.17
2019-01-25T18:45:58.764Z,39.57
2019-01-25T18:48:34.877Z,38.63
2019-01-25T18:51:04.135Z,36.73
2019-01-25T18:53:33.383Z,37.33
2019-01-25T18:56:02.703Z,35.70
2019-01-25T18:58:38.879Z,37.13
2019-01-25T19:01:08.156Z,36.00
2019-01-25T19:03:39.469Z,42.13
2019-01-25T19:06:08.724Z,35.17
2019-01-25T19:08:37.983Z,40.63
2019-01-25T19:11:10.254Z,38.83
2019-01-25T19:13:39.503Z,36.13
2019-01-25T19:16:09.693Z,35.73
2019-01-25T19:18:39.927Z,36.87
2019-01-25T19:21:09.201Z,33.80
2019-01-25T19:23:38.465Z,35.63
2019-01-25T19:26:07.706Z,35.30
2019-01-25T19:28:39.019Z,29.23
2019-01-25T19:31:08.287Z,32.07
2019-01-25T19:33:37.561Z,31.20
2019-01-25T19:36:06.803Z,39.47
2019-01-25T19:38:36.066Z,37.03
2019-01-25T19:41:05.477Z,35.27
2019-01-25T19:43:34.830Z,35.17
2019-01-25T19:46:04.147Z,35.00
2019-01-25T19:48:33.413Z,32.60
2019-01-25T19:51:02.671Z,32.53
2019-01-25T19:53:31.948Z,30.90
2019-01-25T19:56:01.525Z,33.40
2019-01-25T19:58:30.787Z,31.83
2019-01-25T20:01:00.031Z,32.57
2019-01-25T20:03:29.341Z,33.47
2019-01-25T20:05:58.622Z,30.20
2019-01-25T20:08:29.310Z,31.77
2019-01-25T20:10:58.543Z,31.83
2019-01-25T20:13:27.789Z,33.90
2019-01-25T20:15:58.976Z,29.33
2019-01-25T20:18:28.222Z,34.40
2019-01-25T20:20:57.509Z,31.27
2019-01-25T20:23:27.763Z,33.23
2019-01-25T20:25:57.044Z,31.13
2019-01-25T20:28:26.292Z,32.73
2019-01-25T20:30:55.573Z,35.07
2019-01-25T20:33:24.889Z,36.17
2019-01-25T20:35:55.107Z,28.43
2019-01-25T20:38:24.364Z,30.77
2019-01-25T20:40:53.638Z,38.20
2019-01-25T20:43:22.898Z,31.27
2019-01-25T20:45:52.160Z,30.23
2019-01-25T20:48:21.413Z,30.47
2019-01-25T20:50:51.651Z,31.67
2019-01-25T20:53:22.902Z,28.93
2019-01-25T20:55:54.162Z,30.97
2019-01-25T20:58:23.511Z,28.70
2019-01-25T21:00:52.904Z,30.67
2019-01-25T21:03:22.152Z,28.27
2019-01-25T21:05:56.365Z,35.50
2019-01-25T21:08:25.613Z,30.23
2019-01-25T21:10:54.946Z,29.23
2019-01-25T21:13:24.238Z,28.80
2019-01-25T21:15:55.600Z,29.70
2019-01-25T21:18:24.936Z,28.77
2019-01-25T21:20:54.206Z,31.00
2019-01-25T21:23:23.481Z,29.37
2019-01-25T21:25:52.800Z,30.37
2019-01-25T21:28:22.061Z,33.93
2019-01-25T21:30:51.328Z,29.00
2019-01-25T21:33:20.605Z,27.23
2019-01-25T21:35:49.840Z,29.57
2019-01-25T21:38:19.100Z,32.90
2019-01-25T21:40:48.334Z,27.57
2019-01-25T21:43:17.616Z,30.27
2019-01-25T21:45:46.858Z,30.33
2019-01-25T21:48:18.040Z,32.27
2019-01-25T21:50:48.235Z,30.70
2019-01-25T21:53:17.505Z,29.07
2019-01-25T21:55:46.756Z,32.83
2019-01-25T21:58:16.980Z,32.30
2019-01-25T22:00:46.222Z,30.93
2019-01-25T22:03:15.469Z,32.63
2019-01-25T22:05:44.721Z,32.57
2019-01-25T22:08:20.746Z,32.47
2019-01-25T22:10:50.895Z,31.03
2019-01-25T22:13:20.135Z,33.37
2019-01-25T22:15:50.995Z,35.97
2019-01-25T22:18:20.577Z,33.23
2019-01-25T22:20:49.809Z,30.97
2019-01-25T22:23:19.106Z,30.53
2019-01-25T22:25:48.368Z,30.50
2019-01-25T22:28:17.616Z,32.07
2019-01-25T22:30:46.891Z,33.97
2019-01-25T22:33:16.129Z,30.10
2019-01-25T22:35:45.463Z,29.30
2019-01-25T22:38:15.771Z,31.87
2019-01-25T22:40:45.111Z,28.37
2019-01-25T22:43:14.377Z,29.13
2019-01-25T22:45:43.632Z,26.60
2019-01-25T22:48:12.881Z,26.10
2019-01-25T22:50:42.160Z,28.53
2019-01-25T22:53:11.422Z,26.57
2019-01-25T22:55:40.671Z,26.13
2019-01-25T22:58:09.926Z,27.77
2019-01-25T23:01:01.314Z,27.47
2019-01-25T23:03:37.119Z,26.07
2019-01-25T23:06:29.723Z,27.23
2019-01-25T23:09:05.055Z,26.53
2019-01-25T23:11:34.387Z,28.63
2019-01-25T23:14:04.507Z,28.60
2019-01-25T23:16:33.777Z,28.27
2019-01-25T23:19:03.045Z,30.03
2019-01-25T23:21:33.332Z,32.50
2019-01-25T23:24:02.601Z,32.27
2019-01-25T23:26:31.866Z,29.03
2019-01-25T23:29:01.207Z,31.17
2019-01-25T23:31:30.574Z,30.87
2019-01-25T23:33:59.907Z,31.23
2019-01-25T23:36:29.242Z,34.97
2019-01-25T23:38:58.526Z,33.23
2019-01-25T23:41:29.056Z,36.43
2019-01-25T23:43:59.351Z,40.07
2019-01-25T23:46:28.617Z,36.67
2019-01-25T23:48:57.861Z,38.90
2019-01-25T23:51:28.154Z,38.13
2019-01-25T23:53:57.435Z,42.63
2019-01-25T23:56:26.680Z,37.73
2019-01-25T23:58:56.968Z,45.47
